Terminal Aerodrome Forecast
Issued by NWS

Home | Current Version | Previous Version | Text Only | Print | Product List | Glossary On
Versions: 1 2 3 4 5 6 7 8 9 10 11 12
961
FTUS44 KLZK 241730
TAFBPK
TAF
KBPK 241730Z 2418/2518 23006KT P6SM SKC
     FM242300 VRB03KT P6SM BKN150
     FM251300 02006KT P6SM BKN150=

USA.gov is the U.S. government's official web portal to all federal, state and local government web resources and services.